sensor_id;sensor_type;location;lat;lon;timestamp;P1;durP1;ratioP1;P2;durP2;ratioP2
66874;SDS011;53784;52.630;4.896;2023-04-25T00:01:45;8.75;;;1.80;;
66874;SDS011;53784;52.630;4.896;2023-04-25T00:04:10;9.90;;;1.80;;
66874;SDS011;53784;52.630;4.896;2023-04-25T00:06:36;11.00;;;1.80;;
66874;SDS011;53784;52.630;4.896;2023-04-25T00:09:02;12.63;;;2.22;;
66874;SDS011;53784;52.630;4.896;2023-04-25T00:11:28;11.27;;;2.00;;
66874;SDS011;53784;52.630;4.896;2023-04-25T00:13:55;8.38;;;1.80;;
66874;SDS011;53784;52.630;4.896;2023-04-25T00:16:22;9.10;;;1.63;;
66874;SDS011;53784;52.630;4.896;2023-04-25T00:18:48;11.35;;;2.00;;
66874;SDS011;53784;52.630;4.896;2023-04-25T00:21:16;7.45;;;1.95;;
66874;SDS011;53784;52.630;4.896;2023-04-25T00:23:43;9.25;;;1.60;;
66874;SDS011;53784;52.630;4.896;2023-04-25T00:26:08;14.57;;;1.98;;
66874;SDS011;53784;52.630;4.896;2023-04-25T00:28:33;13.00;;;2.05;;
66874;SDS011;53784;52.630;4.896;2023-04-25T00:30:59;7.63;;;1.70;;
66874;SDS011;53784;52.630;4.896;2023-04-25T00:33:24;11.18;;;2.22;;
66874;SDS011;53784;52.630;4.896;2023-04-25T00:35:49;12.55;;;2.10;;
66874;SDS011;53784;52.630;4.896;2023-04-25T00:38:15;11.07;;;1.92;;
66874;SDS011;53784;52.630;4.896;2023-04-25T00:40:40;12.35;;;2.08;;
66874;SDS011;53784;52.630;4.896;2023-04-25T00:43:08;13.73;;;2.00;;
66874;SDS011;53784;52.630;4.896;2023-04-25T00:45:33;12.57;;;1.90;;
66874;SDS011;53784;52.630;4.896;2023-04-25T00:48:03;6.55;;;1.85;;
66874;SDS011;53784;52.630;4.896;2023-04-25T00:50:29;12.00;;;2.17;;
66874;SDS011;53784;52.630;4.896;2023-04-25T00:52:54;11.40;;;1.80;;
66874;SDS011;53784;52.630;4.896;2023-04-25T00:55:20;11.35;;;2.08;;
66874;SDS011;53784;52.630;4.896;2023-04-25T00:57:45;11.13;;;2.10;;
66874;SDS011;53784;52.630;4.896;2023-04-25T01:00:11;11.68;;;2.28;;
66874;SDS011;53784;52.630;4.896;2023-04-25T01:02:39;7.10;;;1.50;;
66874;SDS011;53784;52.630;4.896;2023-04-25T01:05:05;8.95;;;1.90;;
66874;SDS011;53784;52.630;4.896;2023-04-25T01:07:30;10.88;;;1.73;;
66874;SDS011;53784;52.630;4.896;2023-04-25T01:09:55;10.20;;;1.90;;
66874;SDS011;53784;52.630;4.896;2023-04-25T01:12:21;9.82;;;1.70;;
66874;SDS011;53784;52.630;4.896;2023-04-25T01:14:46;13.65;;;1.90;;
66874;SDS011;53784;52.630;4.896;2023-04-25T01:17:12;9.20;;;1.80;;
66874;SDS011;53784;52.630;4.896;2023-04-25T01:19:38;11.25;;;2.15;;
66874;SDS011;53784;52.630;4.896;2023-04-25T01:22:03;10.63;;;1.70;;
66874;SDS011;53784;52.630;4.896;2023-04-25T01:24:29;12.70;;;2.10;;
66874;SDS011;53784;52.630;4.896;2023-04-25T01:26:56;10.82;;;1.65;;
66874;SDS011;53784;52.630;4.896;2023-04-25T01:29:22;11.05;;;1.75;;
66874;SDS011;53784;52.630;4.896;2023-04-25T01:31:48;10.90;;;1.75;;
66874;SDS011;53784;52.630;4.896;2023-04-25T01:34:13;9.57;;;1.77;;
66874;SDS011;53784;52.630;4.896;2023-04-25T01:36:39;7.70;;;1.63;;
66874;SDS011;53784;52.630;4.896;2023-04-25T01:39:05;9.85;;;2.13;;
66874;SDS011;53784;52.630;4.896;2023-04-25T01:41:31;15.20;;;2.10;;
66874;SDS011;53784;52.630;4.896;2023-04-25T01:43:57;9.15;;;1.65;;
66874;SDS011;53784;52.630;4.896;2023-04-25T01:46:22;11.82;;;2.00;;
66874;SDS011;53784;52.630;4.896;2023-04-25T01:48:47;11.15;;;1.92;;
66874;SDS011;53784;52.630;4.896;2023-04-25T01:51:13;8.80;;;1.63;;
66874;SDS011;53784;52.630;4.896;2023-04-25T01:53:38;8.02;;;1.70;;
66874;SDS011;53784;52.630;4.896;2023-04-25T01:56:04;12.32;;;1.85;;
66874;SDS011;53784;52.630;4.896;2023-04-25T01:58:30;12.18;;;2.08;;
66874;SDS011;53784;52.630;4.896;2023-04-25T02:00:55;9.20;;;1.77;;
66874;SDS011;53784;52.630;4.896;2023-04-25T02:03:21;12.00;;;2.03;;
66874;SDS011;53784;52.630;4.896;2023-04-25T02:05:46;12.45;;;1.83;;
66874;SDS011;53784;52.630;4.896;2023-04-25T02:08:11;8.77;;;1.90;;
66874;SDS011;53784;52.630;4.896;2023-04-25T02:10:36;11.35;;;1.88;;
66874;SDS011;53784;52.630;4.896;2023-04-25T02:13:02;12.00;;;1.50;;
66874;SDS011;53784;52.630;4.896;2023-04-25T02:15:29;10.48;;;2.10;;
66874;SDS011;53784;52.630;4.896;2023-04-25T02:17:54;8.80;;;1.77;;
66874;SDS011;53784;52.630;4.896;2023-04-25T02:20:20;10.65;;;1.65;;
66874;SDS011;53784;52.630;4.896;2023-04-25T02:22:46;8.75;;;1.45;;
66874;SDS011;53784;52.630;4.896;2023-04-25T02:25:11;9.50;;;1.85;;
66874;SDS011;53784;52.630;4.896;2023-04-25T02:27:37;12.35;;;1.73;;
66874;SDS011;53784;52.630;4.896;2023-04-25T02:30:02;8.55;;;1.80;;
66874;SDS011;53784;52.630;4.896;2023-04-25T02:32:29;9.20;;;1.75;;
66874;SDS011;53784;52.630;4.896;2023-04-25T02:34:55;11.05;;;1.58;;
66874;SDS011;53784;52.630;4.896;2023-04-25T02:37:20;6.72;;;1.40;;
66874;SDS011;53784;52.630;4.896;2023-04-25T02:39:45;7.00;;;1.20;;
66874;SDS011;53784;52.630;4.896;2023-04-25T02:42:11;6.38;;;1.35;;
66874;SDS011;53784;52.630;4.896;2023-04-25T02:44:36;8.10;;;1.77;;
66874;SDS011;53784;52.630;4.896;2023-04-25T02:47:01;8.50;;;1.50;;
66874;SDS011;53784;52.630;4.896;2023-04-25T02:49:26;6.78;;;1.20;;
66874;SDS011;53784;52.630;4.896;2023-04-25T02:51:52;5.95;;;1.05;;
66874;SDS011;53784;52.630;4.896;2023-04-25T02:54:17;4.97;;;1.27;;
66874;SDS011;53784;52.630;4.896;2023-04-25T02:56:42;7.80;;;1.30;;
66874;SDS011;53784;52.630;4.896;2023-04-25T02:59:08;10.75;;;1.65;;
66874;SDS011;53784;52.630;4.896;2023-04-25T03:01:33;6.97;;;1.25;;
66874;SDS011;53784;52.630;4.896;2023-04-25T03:03:58;6.28;;;1.40;;
66874;SDS011;53784;52.630;4.896;2023-04-25T03:06:23;9.93;;;1.20;;
66874;SDS011;53784;52.630;4.896;2023-04-25T03:08:49;8.98;;;1.58;;
66874;SDS011;53784;52.630;4.896;2023-04-25T03:11:14;6.85;;;1.50;;
66874;SDS011;53784;52.630;4.896;2023-04-25T03:13:40;10.10;;;1.30;;
66874;SDS011;53784;52.630;4.896;2023-04-25T03:16:05;10.13;;;1.38;;
66874;SDS011;53784;52.630;4.896;2023-04-25T03:18:30;8.52;;;1.83;;
66874;SDS011;53784;52.630;4.896;2023-04-25T03:20:56;7.13;;;1.35;;
66874;SDS011;53784;52.630;4.896;2023-04-25T03:23:21;5.10;;;1.30;;
66874;SDS011;53784;52.630;4.896;2023-04-25T03:25:46;6.32;;;1.33;;
66874;SDS011;53784;52.630;4.896;2023-04-25T03:28:12;5.60;;;1.30;;
66874;SDS011;53784;52.630;4.896;2023-04-25T03:30:37;7.47;;;1.17;;
66874;SDS011;53784;52.630;4.896;2023-04-25T03:33:02;4.78;;;1.40;;
66874;SDS011;53784;52.630;4.896;2023-04-25T03:35:27;8.40;;;1.50;;
66874;SDS011;53784;52.630;4.896;2023-04-25T03:37:53;5.97;;;1.38;;
66874;SDS011;53784;52.630;4.896;2023-04-25T03:40:18;4.95;;;1.30;;
66874;SDS011;53784;52.630;4.896;2023-04-25T03:42:44;6.20;;;1.38;;
66874;SDS011;53784;52.630;4.896;2023-04-25T03:45:09;5.22;;;1.40;;
66874;SDS011;53784;52.630;4.896;2023-04-25T03:47:35;5.30;;;1.20;;
66874;SDS011;53784;52.630;4.896;2023-04-25T03:50:00;4.57;;;1.27;;
66874;SDS011;53784;52.630;4.896;2023-04-25T03:52:27;9.60;;;1.50;;
66874;SDS011;53784;52.630;4.896;2023-04-25T03:54:52;4.57;;;1.30;;
66874;SDS011;53784;52.630;4.896;2023-04-25T03:57:17;8.90;;;1.60;;
66874;SDS011;53784;52.630;4.896;2023-04-25T03:59:43;5.63;;;1.30;;
66874;SDS011;53784;52.630;4.896;2023-04-25T04:02:09;7.57;;;1.33;;
66874;SDS011;53784;52.630;4.896;2023-04-25T04:04:34;8.25;;;1.70;;
66874;SDS011;53784;52.630;4.896;2023-04-25T04:07:00;10.07;;;1.70;;
66874;SDS011;53784;52.630;4.896;2023-04-25T04:09:25;7.47;;;1.55;;
66874;SDS011;53784;52.630;4.896;2023-04-25T04:11:52;7.40;;;1.60;;
66874;SDS011;53784;52.630;4.896;2023-04-25T04:14:17;6.32;;;1.63;;
66874;SDS011;53784;52.630;4.896;2023-04-25T04:16:42;7.53;;;1.40;;
66874;SDS011;53784;52.630;4.896;2023-04-25T04:19:08;9.52;;;1.98;;
66874;SDS011;53784;52.630;4.896;2023-04-25T04:21:33;7.53;;;1.95;;
66874;SDS011;53784;52.630;4.896;2023-04-25T04:23:58;7.90;;;1.80;;
66874;SDS011;53784;52.630;4.896;2023-04-25T04:26:24;9.63;;;1.80;;
66874;SDS011;53784;52.630;4.896;2023-04-25T04:28:51;8.82;;;2.05;;
66874;SDS011;53784;52.630;4.896;2023-04-25T04:31:16;5.75;;;1.80;;
66874;SDS011;53784;52.630;4.896;2023-04-25T04:33:44;6.85;;;1.80;;
66874;SDS011;53784;52.630;4.896;2023-04-25T04:36:09;7.43;;;1.90;;
66874;SDS011;53784;52.630;4.896;2023-04-25T04:38:35;10.20;;;1.80;;
66874;SDS011;53784;52.630;4.896;2023-04-25T04:41:01;8.95;;;1.80;;
66874;SDS011;53784;52.630;4.896;2023-04-25T04:43:27;8.35;;;1.67;;
66874;SDS011;53784;52.630;4.896;2023-04-25T04:45:53;6.10;;;1.60;;
66874;SDS011;53784;52.630;4.896;2023-04-25T04:48:21;6.43;;;1.60;;
66874;SDS011;53784;52.630;4.896;2023-04-25T04:50:46;10.75;;;1.40;;
66874;SDS011;53784;52.630;4.896;2023-04-25T04:53:11;8.48;;;1.60;;
66874;SDS011;53784;52.630;4.896;2023-04-25T04:55:37;8.07;;;1.60;;
66874;SDS011;53784;52.630;4.896;2023-04-25T04:58:02;10.38;;;1.95;;
66874;SDS011;53784;52.630;4.896;2023-04-25T05:00:27;12.07;;;2.47;;
66874;SDS011;53784;52.630;4.896;2023-04-25T05:02:54;12.32;;;1.38;;
66874;SDS011;53784;52.630;4.896;2023-04-25T05:05:20;12.00;;;1.70;;
66874;SDS011;53784;52.630;4.896;2023-04-25T05:07:45;7.07;;;1.40;;
66874;SDS011;53784;52.630;4.896;2023-04-25T05:10:10;10.93;;;1.50;;
66874;SDS011;53784;52.630;4.896;2023-04-25T05:12:35;6.72;;;1.50;;
66874;SDS011;53784;52.630;4.896;2023-04-25T05:15:01;9.00;;;1.98;;
66874;SDS011;53784;52.630;4.896;2023-04-25T05:17:26;9.68;;;1.85;;
66874;SDS011;53784;52.630;4.896;2023-04-25T05:19:51;8.35;;;1.50;;
66874;SDS011;53784;52.630;4.896;2023-04-25T05:22:17;11.30;;;1.55;;
66874;SDS011;53784;52.630;4.896;2023-04-25T05:24:43;8.57;;;1.58;;
66874;SDS011;53784;52.630;4.896;2023-04-25T05:27:09;6.35;;;1.40;;
66874;SDS011;53784;52.630;4.896;2023-04-25T05:29:34;7.88;;;1.38;;
66874;SDS011;53784;52.630;4.896;2023-04-25T05:32:00;6.90;;;1.30;;
66874;SDS011;53784;52.630;4.896;2023-04-25T05:34:25;8.38;;;1.23;;
66874;SDS011;53784;52.630;4.896;2023-04-25T05:36:50;7.57;;;1.20;;
66874;SDS011;53784;52.630;4.896;2023-04-25T05:39:16;7.50;;;1.23;;
66874;SDS011;53784;52.630;4.896;2023-04-25T05:41:44;7.38;;;1.10;;
66874;SDS011;53784;52.630;4.896;2023-04-25T05:44:09;9.77;;;1.25;;
66874;SDS011;53784;52.630;4.896;2023-04-25T05:46:35;9.48;;;1.05;;
66874;SDS011;53784;52.630;4.896;2023-04-25T05:49:00;5.85;;;1.00;;
66874;SDS011;53784;52.630;4.896;2023-04-25T05:51:25;8.98;;;1.20;;
66874;SDS011;53784;52.630;4.896;2023-04-25T05:53:52;5.10;;;1.25;;
66874;SDS011;53784;52.630;4.896;2023-04-25T05:56:17;4.75;;;0.98;;
66874;SDS011;53784;52.630;4.896;2023-04-25T05:58:43;4.18;;;1.00;;
66874;SDS011;53784;52.630;4.896;2023-04-25T06:01:09;5.85;;;1.20;;
66874;SDS011;53784;52.630;4.896;2023-04-25T06:03:34;3.75;;;0.80;;
66874;SDS011;53784;52.630;4.896;2023-04-25T06:06:00;6.15;;;0.90;;
66874;SDS011;53784;52.630;4.896;2023-04-25T06:08:25;9.43;;;1.40;;
66874;SDS011;53784;52.630;4.896;2023-04-25T06:10:50;7.13;;;1.08;;
66874;SDS011;53784;52.630;4.896;2023-04-25T06:13:15;4.40;;;0.93;;
66874;SDS011;53784;52.630;4.896;2023-04-25T06:15:41;5.63;;;0.90;;
66874;SDS011;53784;52.630;4.896;2023-04-25T06:18:06;7.47;;;1.02;;
66874;SDS011;53784;52.630;4.896;2023-04-25T06:20:31;6.75;;;1.20;;
66874;SDS011;53784;52.630;4.896;2023-04-25T06:22:57;7.70;;;1.30;;
66874;SDS011;53784;52.630;4.896;2023-04-25T06:25:22;6.43;;;1.00;;
66874;SDS011;53784;52.630;4.896;2023-04-25T06:27:47;5.15;;;1.20;;
66874;SDS011;53784;52.630;4.896;2023-04-25T06:30:13;8.02;;;1.35;;
66874;SDS011;53784;52.630;4.896;2023-04-25T06:32:38;7.05;;;1.23;;
66874;SDS011;53784;52.630;4.896;2023-04-25T06:35:04;9.20;;;1.30;;
66874;SDS011;53784;52.630;4.896;2023-04-25T06:37:30;6.78;;;1.25;;
66874;SDS011;53784;52.630;4.896;2023-04-25T06:39:55;7.22;;;1.30;;
66874;SDS011;53784;52.630;4.896;2023-04-25T06:42:21;8.57;;;1.25;;
66874;SDS011;53784;52.630;4.896;2023-04-25T06:44:46;5.35;;;1.05;;
66874;SDS011;53784;52.630;4.896;2023-04-25T06:47:12;7.60;;;1.30;;
66874;SDS011;53784;52.630;4.896;2023-04-25T06:49:37;8.40;;;1.30;;
66874;SDS011;53784;52.630;4.896;2023-04-25T06:52:02;5.35;;;1.10;;
66874;SDS011;53784;52.630;4.896;2023-04-25T06:54:28;7.53;;;1.20;;
66874;SDS011;53784;52.630;4.896;2023-04-25T06:56:54;5.32;;;1.40;;
66874;SDS011;53784;52.630;4.896;2023-04-25T06:59:20;5.85;;;1.27;;
66874;SDS011;53784;52.630;4.896;2023-04-25T07:01:45;5.70;;;1.13;;
66874;SDS011;53784;52.630;4.896;2023-04-25T07:04:11;6.80;;;1.30;;
66874;SDS011;53784;52.630;4.896;2023-04-25T07:06:36;4.45;;;1.20;;
66874;SDS011;53784;52.630;4.896;2023-04-25T07:11:32;5.67;;;1.13;;
66874;SDS011;53784;52.630;4.896;2023-04-25T07:13:57;5.07;;;0.90;;
66874;SDS011;53784;52.630;4.896;2023-04-25T07:16:23;4.47;;;1.10;;
66874;SDS011;53784;52.630;4.896;2023-04-25T07:18:48;3.85;;;0.93;;
66874;SDS011;53784;52.630;4.896;2023-04-25T07:21:13;4.55;;;1.02;;
66874;SDS011;53784;52.630;4.896;2023-04-25T07:23:38;4.85;;;1.02;;
66874;SDS011;53784;52.630;4.896;2023-04-25T07:26:05;4.78;;;0.93;;
66874;SDS011;53784;52.630;4.896;2023-04-25T07:28:31;4.80;;;0.98;;
66874;SDS011;53784;52.630;4.896;2023-04-25T07:30:56;5.32;;;0.90;;
66874;SDS011;53784;52.630;4.896;2023-04-25T07:33:23;6.50;;;1.10;;
66874;SDS011;53784;52.630;4.896;2023-04-25T07:35:48;6.72;;;1.10;;
66874;SDS011;53784;52.630;4.896;2023-04-25T07:38:13;3.78;;;0.80;;
66874;SDS011;53784;52.630;4.896;2023-04-25T07:40:38;3.72;;;1.00;;
66874;SDS011;53784;52.630;4.896;2023-04-25T07:43:04;8.13;;;1.30;;
66874;SDS011;53784;52.630;4.896;2023-04-25T07:45:29;4.22;;;1.20;;
66874;SDS011;53784;52.630;4.896;2023-04-25T07:47:55;7.75;;;1.38;;
66874;SDS011;53784;52.630;4.896;2023-04-25T07:50:20;5.50;;;1.35;;
66874;SDS011;53784;52.630;4.896;2023-04-25T07:52:45;6.95;;;1.30;;
66874;SDS011;53784;52.630;4.896;2023-04-25T07:55:11;6.25;;;1.40;;
66874;SDS011;53784;52.630;4.896;2023-04-25T07:57:36;6.30;;;1.17;;
66874;SDS011;53784;52.630;4.896;2023-04-25T08:00:03;4.07;;;1.05;;
66874;SDS011;53784;52.630;4.896;2023-04-25T08:02:29;5.13;;;1.20;;
66874;SDS011;53784;52.630;4.896;2023-04-25T08:04:55;4.40;;;1.10;;
66874;SDS011;53784;52.630;4.896;2023-04-25T08:07:20;5.07;;;0.82;;
66874;SDS011;53784;52.630;4.896;2023-04-25T08:09:46;3.72;;;1.00;;
66874;SDS011;53784;52.630;4.896;2023-04-25T08:12:11;5.03;;;0.93;;
66874;SDS011;53784;52.630;4.896;2023-04-25T08:14:36;5.53;;;1.00;;
66874;SDS011;53784;52.630;4.896;2023-04-25T08:17:03;4.75;;;0.90;;
66874;SDS011;53784;52.630;4.896;2023-04-25T08:19:28;5.70;;;0.95;;
66874;SDS011;53784;52.630;4.896;2023-04-25T08:21:55;5.47;;;1.33;;
66874;SDS011;53784;52.630;4.896;2023-04-25T08:24:21;5.72;;;0.95;;
66874;SDS011;53784;52.630;4.896;2023-04-25T08:26:47;8.15;;;1.30;;
66874;SDS011;53784;52.630;4.896;2023-04-25T08:29:12;3.55;;;0.90;;
66874;SDS011;53784;52.630;4.896;2023-04-25T08:31:37;4.50;;;0.90;;
66874;SDS011;53784;52.630;4.896;2023-04-25T08:34:02;7.55;;;1.20;;
66874;SDS011;53784;52.630;4.896;2023-04-25T08:36:28;5.13;;;1.10;;
66874;SDS011;53784;52.630;4.896;2023-04-25T08:38:53;3.60;;;1.00;;
66874;SDS011;53784;52.630;4.896;2023-04-25T08:41:18;4.15;;;1.20;;
66874;SDS011;53784;52.630;4.896;2023-04-25T08:43:45;6.80;;;1.10;;
66874;SDS011;53784;52.630;4.896;2023-04-25T08:46:13;8.23;;;1.30;;
66874;SDS011;53784;52.630;4.896;2023-04-25T08:48:42;6.32;;;1.23;;
66874;SDS011;53784;52.630;4.896;2023-04-25T08:51:09;6.93;;;1.48;;
66874;SDS011;53784;52.630;4.896;2023-04-25T08:53:35;5.45;;;1.10;;
66874;SDS011;53784;52.630;4.896;2023-04-25T08:56:01;6.60;;;1.60;;
66874;SDS011;53784;52.630;4.896;2023-04-25T08:58:27;5.75;;;1.20;;
66874;SDS011;53784;52.630;4.896;2023-04-25T09:00:52;5.60;;;1.35;;
66874;SDS011;53784;52.630;4.896;2023-04-25T09:03:18;4.88;;;1.20;;
66874;SDS011;53784;52.630;4.896;2023-04-25T09:05:43;5.47;;;1.45;;
66874;SDS011;53784;52.630;4.896;2023-04-25T09:08:09;6.88;;;1.45;;
66874;SDS011;53784;52.630;4.896;2023-04-25T09:10:34;6.13;;;1.20;;
66874;SDS011;53784;52.630;4.896;2023-04-25T09:13:04;6.90;;;1.25;;
66874;SDS011;53784;52.630;4.896;2023-04-25T09:15:34;6.18;;;1.10;;
66874;SDS011;53784;52.630;4.896;2023-04-25T09:18:12;7.28;;;1.40;;
66874;SDS011;53784;52.630;4.896;2023-04-25T09:20:43;6.20;;;1.13;;
66874;SDS011;53784;52.630;4.896;2023-04-25T09:23:09;5.20;;;1.13;;
66874;SDS011;53784;52.630;4.896;2023-04-25T09:25:38;6.88;;;1.35;;
66874;SDS011;53784;52.630;4.896;2023-04-25T09:28:07;8.43;;;1.50;;
66874;SDS011;53784;52.630;4.896;2023-04-25T09:30:34;7.53;;;1.33;;
66874;SDS011;53784;52.630;4.896;2023-04-25T09:33:06;6.13;;;1.30;;
66874;SDS011;53784;52.630;4.896;2023-04-25T09:35:42;5.72;;;1.20;;
66874;SDS011;53784;52.630;4.896;2023-04-25T09:38:09;6.13;;;1.08;;
66874;SDS011;53784;52.630;4.896;2023-04-25T09:40:39;8.10;;;1.45;;
66874;SDS011;53784;52.630;4.896;2023-04-25T09:43:26;6.40;;;1.23;;
66874;SDS011;53784;52.630;4.896;2023-04-25T09:45:53;4.68;;;1.10;;
66874;SDS011;53784;52.630;4.896;2023-04-25T09:48:21;5.13;;;1.30;;
66874;SDS011;53784;52.630;4.896;2023-04-25T09:53:29;4.13;;;1.20;;
66874;SDS011;53784;52.630;4.896;2023-04-25T09:55:55;4.32;;;1.40;;
66874;SDS011;53784;52.630;4.896;2023-04-25T09:58:21;4.80;;;1.40;;
66874;SDS011;53784;52.630;4.896;2023-04-25T10:00:49;4.25;;;1.70;;
66874;SDS011;53784;52.630;4.896;2023-04-25T10:03:15;5.72;;;1.40;;
66874;SDS011;53784;52.630;4.896;2023-04-25T10:05:44;5.28;;;1.40;;
66874;SDS011;53784;52.630;4.896;2023-04-25T10:08:11;4.75;;;1.02;;
66874;SDS011;53784;52.630;4.896;2023-04-25T10:10:37;3.75;;;1.20;;
66874;SDS011;53784;52.630;4.896;2023-04-25T10:13:05;6.60;;;1.30;;
66874;SDS011;53784;52.630;4.896;2023-04-25T10:15:32;5.60;;;1.20;;
66874;SDS011;53784;52.630;4.896;2023-04-25T10:18:00;4.33;;;1.10;;
66874;SDS011;53784;52.630;4.896;2023-04-25T10:20:25;4.30;;;1.35;;
66874;SDS011;53784;52.630;4.896;2023-04-25T10:22:51;5.00;;;1.25;;
66874;SDS011;53784;52.630;4.896;2023-04-25T10:25:19;4.22;;;1.30;;
66874;SDS011;53784;52.630;4.896;2023-04-25T10:27:44;3.88;;;1.10;;
66874;SDS011;53784;52.630;4.896;2023-04-25T10:30:10;4.13;;;1.33;;
66874;SDS011;53784;52.630;4.896;2023-04-25T10:32:41;5.15;;;1.50;;
66874;SDS011;53784;52.630;4.896;2023-04-25T10:35:16;5.63;;;1.40;;
66874;SDS011;53784;52.630;4.896;2023-04-25T10:40:29;4.93;;;1.20;;
66874;SDS011;53784;52.630;4.896;2023-04-25T10:42:55;5.78;;;1.30;;
66874;SDS011;53784;52.630;4.896;2023-04-25T10:45:20;4.53;;;1.20;;
66874;SDS011;53784;52.630;4.896;2023-04-25T10:47:46;3.42;;;1.15;;
66874;SDS011;53784;52.630;4.896;2023-04-25T10:50:11;5.63;;;1.33;;
66874;SDS011;53784;52.630;4.896;2023-04-25T10:52:40;6.68;;;1.33;;
66874;SDS011;53784;52.630;4.896;2023-04-25T10:55:05;6.10;;;1.55;;
66874;SDS011;53784;52.630;4.896;2023-04-25T11:02:31;5.05;;;1.30;;
66874;SDS011;53784;52.630;4.896;2023-04-25T11:04:56;5.28;;;1.50;;
66874;SDS011;53784;52.630;4.896;2023-04-25T11:10:17;3.92;;;1.30;;
66874;SDS011;53784;52.630;4.896;2023-04-25T11:12:44;4.20;;;1.40;;
66874;SDS011;53784;52.630;4.896;2023-04-25T11:15:10;4.43;;;1.30;;
66874;SDS011;53784;52.630;4.896;2023-04-25T11:17:35;5.20;;;1.50;;
66874;SDS011;53784;52.630;4.896;2023-04-25T11:20:00;3.92;;;1.30;;
66874;SDS011;53784;52.630;4.896;2023-04-25T11:22:26;5.38;;;1.42;;
66874;SDS011;53784;52.630;4.896;2023-04-25T11:24:53;6.53;;;1.50;;
66874;SDS011;53784;52.630;4.896;2023-04-25T11:27:18;4.65;;;1.40;;
66874;SDS011;53784;52.630;4.896;2023-04-25T11:29:44;7.30;;;1.65;;
66874;SDS011;53784;52.630;4.896;2023-04-25T11:32:09;5.82;;;1.20;;
66874;SDS011;53784;52.630;4.896;2023-04-25T11:34:35;6.13;;;1.60;;
66874;SDS011;53784;52.630;4.896;2023-04-25T11:37:00;6.18;;;1.27;;
66874;SDS011;53784;52.630;4.896;2023-04-25T11:39:27;6.82;;;1.30;;
66874;SDS011;53784;52.630;4.896;2023-04-25T11:41:53;5.00;;;1.27;;
66874;SDS011;53784;52.630;4.896;2023-04-25T11:44:19;7.00;;;1.23;;
66874;SDS011;53784;52.630;4.896;2023-04-25T11:46:45;3.63;;;1.10;;
66874;SDS011;53784;52.630;4.896;2023-04-25T11:49:11;5.53;;;1.20;;
66874;SDS011;53784;52.630;4.896;2023-04-25T11:51:43;4.55;;;1.23;;
66874;SDS011;53784;52.630;4.896;2023-04-25T11:54:12;5.07;;;1.30;;
66874;SDS011;53784;52.630;4.896;2023-04-25T11:56:44;5.07;;;1.38;;
66874;SDS011;53784;52.630;4.896;2023-04-25T11:59:10;5.32;;;1.30;;
66874;SDS011;53784;52.630;4.896;2023-04-25T12:01:47;4.72;;;1.23;;
66874;SDS011;53784;52.630;4.896;2023-04-25T12:04:20;6.40;;;1.67;;
66874;SDS011;53784;52.630;4.896;2023-04-25T12:06:47;6.15;;;1.63;;
66874;SDS011;53784;52.630;4.896;2023-04-25T12:09:13;5.13;;;1.50;;
66874;SDS011;53784;52.630;4.896;2023-04-25T12:11:41;4.93;;;1.25;;
66874;SDS011;53784;52.630;4.896;2023-04-25T12:14:07;5.40;;;1.40;;
66874;SDS011;53784;52.630;4.896;2023-04-25T12:16:39;5.90;;;1.60;;
66874;SDS011;53784;52.630;4.896;2023-04-25T12:19:06;6.25;;;1.50;;
66874;SDS011;53784;52.630;4.896;2023-04-25T12:21:31;5.22;;;1.30;;
66874;SDS011;53784;52.630;4.896;2023-04-25T12:24:07;5.55;;;1.35;;
66874;SDS011;53784;52.630;4.896;2023-04-25T12:26:58;4.82;;;1.30;;
66874;SDS011;53784;52.630;4.896;2023-04-25T12:29:25;6.70;;;1.50;;
66874;SDS011;53784;52.630;4.896;2023-04-25T12:31:52;7.35;;;1.35;;
66874;SDS011;53784;52.630;4.896;2023-04-25T12:34:18;7.28;;;1.50;;
66874;SDS011;53784;52.630;4.896;2023-04-25T12:36:44;5.15;;;1.38;;
66874;SDS011;53784;52.630;4.896;2023-04-25T12:39:16;5.13;;;1.52;;
66874;SDS011;53784;52.630;4.896;2023-04-25T12:41:44;6.20;;;1.38;;
66874;SDS011;53784;52.630;4.896;2023-04-25T12:44:10;6.15;;;1.38;;
66874;SDS011;53784;52.630;4.896;2023-04-25T12:46:36;6.60;;;1.60;;
66874;SDS011;53784;52.630;4.896;2023-04-25T12:49:01;5.22;;;1.40;;
66874;SDS011;53784;52.630;4.896;2023-04-25T12:51:28;9.02;;;1.77;;
66874;SDS011;53784;52.630;4.896;2023-04-25T12:53:53;7.78;;;1.42;;
66874;SDS011;53784;52.630;4.896;2023-04-25T12:56:19;5.77;;;1.40;;
66874;SDS011;53784;52.630;4.896;2023-04-25T12:58:44;4.22;;;1.10;;
66874;SDS011;53784;52.630;4.896;2023-04-25T13:01:10;5.68;;;1.40;;
66874;SDS011;53784;52.630;4.896;2023-04-25T13:03:36;5.25;;;1.30;;
66874;SDS011;53784;52.630;4.896;2023-04-25T13:06:02;5.50;;;1.10;;
66874;SDS011;53784;52.630;4.896;2023-04-25T13:08:27;4.25;;;1.20;;
66874;SDS011;53784;52.630;4.896;2023-04-25T13:10:53;4.97;;;1.42;;
66874;SDS011;53784;52.630;4.896;2023-04-25T13:13:18;4.95;;;1.30;;
66874;SDS011;53784;52.630;4.896;2023-04-25T13:15:43;5.70;;;1.13;;
66874;SDS011;53784;52.630;4.896;2023-04-25T13:18:08;7.95;;;1.80;;
66874;SDS011;53784;52.630;4.896;2023-04-25T13:20:34;7.90;;;1.70;;
66874;SDS011;53784;52.630;4.896;2023-04-25T13:22:59;6.18;;;1.40;;
66874;SDS011;53784;52.630;4.896;2023-04-25T13:25:24;5.78;;;1.85;;
66874;SDS011;53784;52.630;4.896;2023-04-25T13:27:50;7.13;;;1.90;;
66874;SDS011;53784;52.630;4.896;2023-04-25T13:30:15;8.20;;;1.73;;
66874;SDS011;53784;52.630;4.896;2023-04-25T13:32:41;6.38;;;1.73;;
66874;SDS011;53784;52.630;4.896;2023-04-25T13:35:09;8.32;;;2.97;;
66874;SDS011;53784;52.630;4.896;2023-04-25T13:37:37;6.23;;;1.60;;
66874;SDS011;53784;52.630;4.896;2023-04-25T13:40:03;6.80;;;1.50;;
66874;SDS011;53784;52.630;4.896;2023-04-25T13:42:34;7.15;;;2.38;;
66874;SDS011;53784;52.630;4.896;2023-04-25T13:45:00;5.05;;;1.70;;
66874;SDS011;53784;52.630;4.896;2023-04-25T13:47:25;5.15;;;1.42;;
66874;SDS011;53784;52.630;4.896;2023-04-25T13:49:51;6.07;;;1.30;;
66874;SDS011;53784;52.630;4.896;2023-04-25T13:52:16;4.72;;;1.25;;
66874;SDS011;53784;52.630;4.896;2023-04-25T13:54:41;6.80;;;1.70;;
66874;SDS011;53784;52.630;4.896;2023-04-25T13:57:07;6.78;;;1.40;;
66874;SDS011;53784;52.630;4.896;2023-04-25T13:59:32;4.70;;;1.30;;
66874;SDS011;53784;52.630;4.896;2023-04-25T14:01:58;5.38;;;1.30;;
66874;SDS011;53784;52.630;4.896;2023-04-25T14:04:23;6.68;;;1.42;;
66874;SDS011;53784;52.630;4.896;2023-04-25T14:06:48;5.88;;;1.38;;
66874;SDS011;53784;52.630;4.896;2023-04-25T14:09:14;6.10;;;1.30;;
66874;SDS011;53784;52.630;4.896;2023-04-25T14:11:40;6.20;;;1.48;;
66874;SDS011;53784;52.630;4.896;2023-04-25T14:14:05;4.53;;;1.40;;
66874;SDS011;53784;52.630;4.896;2023-04-25T14:16:30;3.72;;;1.27;;
66874;SDS011;53784;52.630;4.896;2023-04-25T14:18:57;4.60;;;1.25;;
66874;SDS011;53784;52.630;4.896;2023-04-25T14:21:23;5.30;;;1.33;;
66874;SDS011;53784;52.630;4.896;2023-04-25T14:23:48;4.85;;;1.50;;
66874;SDS011;53784;52.630;4.896;2023-04-25T14:26:13;4.68;;;1.30;;
66874;SDS011;53784;52.630;4.896;2023-04-25T14:28:39;10.77;;;1.60;;
66874;SDS011;53784;52.630;4.896;2023-04-25T14:31:04;5.55;;;1.50;;
66874;SDS011;53784;52.630;4.896;2023-04-25T14:33:30;8.57;;;1.30;;
66874;SDS011;53784;52.630;4.896;2023-04-25T14:35:55;7.68;;;1.50;;
66874;SDS011;53784;52.630;4.896;2023-04-25T14:38:20;8.48;;;1.70;;
66874;SDS011;53784;52.630;4.896;2023-04-25T14:40:48;6.25;;;1.63;;
66874;SDS011;53784;52.630;4.896;2023-04-25T14:43:14;4.07;;;1.10;;
66874;SDS011;53784;52.630;4.896;2023-04-25T14:45:39;4.10;;;1.10;;
66874;SDS011;53784;52.630;4.896;2023-04-25T14:48:04;3.55;;;0.88;;
66874;SDS011;53784;52.630;4.896;2023-04-25T14:50:30;4.85;;;1.45;;
66874;SDS011;53784;52.630;4.896;2023-04-25T14:52:55;5.18;;;1.30;;
66874;SDS011;53784;52.630;4.896;2023-04-25T14:55:23;5.45;;;1.40;;